createdAt,value
2016-11-13T00:00:05.449Z,0
2016-11-13T00:01:14.065Z,0
2016-11-13T00:02:22.661Z,0
2016-11-13T00:03:31.250Z,0
2016-11-13T00:04:39.860Z,0
2016-11-13T00:05:48.518Z,0
2016-11-13T00:06:57.099Z,0
2016-11-13T00:08:05.697Z,0
2016-11-13T00:09:14.288Z,0
2016-11-13T00:10:22.885Z,0
2016-11-13T00:11:31.499Z,0
2016-11-13T00:12:40.105Z,0
2016-11-13T00:13:49.023Z,0
2016-11-13T00:14:57.941Z,0
2016-11-13T00:16:06.595Z,0
2016-11-13T00:17:15.203Z,0
2016-11-13T00:18:23.834Z,0
2016-11-13T00:19:32.509Z,0
2016-11-13T00:20:41.142Z,0
2016-11-13T00:21:49.745Z,0
2016-11-13T00:22:58.347Z,0
2016-11-13T00:24:06.980Z,0
2016-11-13T00:25:15.626Z,0
2016-11-13T00:26:24.230Z,0
2016-11-13T00:27:32.830Z,0
2016-11-13T00:28:41.455Z,0
2016-11-13T00:29:50.069Z,0
2016-11-13T00:30:58.670Z,0
2016-11-13T00:32:07.285Z,0
2016-11-13T00:33:15.886Z,0
2016-11-13T00:34:24.495Z,0
2016-11-13T00:35:33.104Z,0
2016-11-13T00:36:41.716Z,0
2016-11-13T00:37:50.620Z,0
2016-11-13T00:38:59.266Z,0
2016-11-13T00:40:08.158Z,0
2016-11-13T00:41:16.776Z,0
2016-11-13T00:42:25.405Z,0
2016-11-13T00:43:34.027Z,0
2016-11-13T00:44:42.640Z,0
2016-11-13T00:45:51.244Z,0
2016-11-13T00:46:59.865Z,0
2016-11-13T00:48:08.478Z,0
2016-11-13T00:49:17.106Z,0
2016-11-13T00:50:25.723Z,0
2016-11-13T00:51:34.320Z,0
2016-11-13T00:52:42.941Z,0
2016-11-13T00:53:51.543Z,0
2016-11-13T00:55:00.162Z,0
2016-11-13T00:56:08.783Z,0
2016-11-13T00:57:17.400Z,0
2016-11-13T00:58:26.000Z,0
2016-11-13T00:59:34.612Z,0
2016-11-13T01:00:43.213Z,0
2016-11-13T01:01:51.832Z,0
2016-11-13T01:03:00.433Z,0
2016-11-13T01:04:09.034Z,0
2016-11-13T01:05:17.652Z,0
2016-11-13T01:06:26.243Z,0
2016-11-13T01:07:34.840Z,0
2016-11-13T01:08:43.436Z,0
2016-11-13T01:09:52.032Z,0
2016-11-13T01:11:00.632Z,0
2016-11-13T01:12:09.236Z,0
2016-11-13T01:13:17.846Z,0
2016-11-13T01:14:26.484Z,0
2016-11-13T01:15:35.111Z,0
2016-11-13T01:16:43.764Z,0
2016-11-13T01:17:52.359Z,0
2016-11-13T01:19:00.951Z,0
2016-11-13T01:20:09.553Z,0
2016-11-13T01:21:18.165Z,0
2016-11-13T01:22:26.789Z,0
2016-11-13T01:23:35.418Z,0
2016-11-13T01:24:44.035Z,0
2016-11-13T01:25:52.655Z,0
2016-11-13T01:27:01.271Z,0
2016-11-13T01:28:09.899Z,0
2016-11-13T01:29:18.497Z,0
2016-11-13T01:30:27.137Z,0
2016-11-13T01:31:35.740Z,0
2016-11-13T01:32:44.347Z,0
2016-11-13T01:33:52.955Z,0
2016-11-13T01:35:01.550Z,0
2016-11-13T01:36:10.167Z,0
2016-11-13T01:37:18.756Z,0
2016-11-13T01:38:27.364Z,0
2016-11-13T01:39:35.977Z,0
2016-11-13T01:40:44.603Z,0
2016-11-13T01:41:53.198Z,0
2016-11-13T01:43:01.795Z,0
2016-11-13T01:44:10.391Z,0
2016-11-13T01:45:19.016Z,0
2016-11-13T01:46:27.635Z,0
2016-11-13T01:47:36.229Z,0
2016-11-13T01:48:44.833Z,0
2016-11-13T01:49:53.425Z,0
2016-11-13T01:51:02.018Z,0
2016-11-13T01:52:10.635Z,0
2016-11-13T01:53:19.256Z,0
2016-11-13T01:54:27.860Z,0
2016-11-13T01:55:36.452Z,0
2016-11-13T01:56:45.090Z,0
2016-11-13T01:57:53.723Z,0
2016-11-13T01:59:02.318Z,0
2016-11-13T02:00:10.953Z,0
2016-11-13T02:01:19.590Z,0
2016-11-13T02:02:28.178Z,0
2016-11-13T02:03:36.749Z,0
2016-11-13T02:04:45.703Z,0
2016-11-13T02:05:54.295Z,0
2016-11-13T02:07:02.913Z,0
2016-11-13T02:08:11.526Z,0
2016-11-13T02:09:20.104Z,0
2016-11-13T02:10:28.705Z,0
2016-11-13T02:11:37.313Z,0
2016-11-13T02:12:45.920Z,0
2016-11-13T02:13:54.544Z,0
2016-11-13T02:15:03.162Z,0
2016-11-13T02:16:11.760Z,0
2016-11-13T02:17:20.374Z,0
2016-11-13T02:18:28.954Z,0
2016-11-13T02:19:37.571Z,0
2016-11-13T02:20:46.166Z,0
2016-11-13T02:21:54.783Z,0
2016-11-13T02:23:03.387Z,0
2016-11-13T02:24:11.987Z,0
2016-11-13T02:25:20.622Z,0
2016-11-13T02:26:29.221Z,0
2016-11-13T02:27:37.817Z,0
2016-11-13T02:28:46.417Z,0
2016-11-13T02:29:55.027Z,0
2016-11-13T02:31:03.673Z,0
2016-11-13T02:32:12.282Z,0
2016-11-13T02:33:20.872Z,0
2016-11-13T02:34:29.492Z,0
2016-11-13T02:35:38.094Z,0
2016-11-13T02:36:46.685Z,0
2016-11-13T02:37:55.290Z,0
2016-11-13T02:39:03.909Z,0
2016-11-13T02:40:12.529Z,0
2016-11-13T02:41:21.120Z,0
2016-11-13T02:42:29.717Z,0
2016-11-13T02:43:38.334Z,0
2016-11-13T02:44:46.940Z,0
2016-11-13T02:45:55.558Z,0
2016-11-13T02:47:04.175Z,0
2016-11-13T02:48:12.774Z,0
2016-11-13T02:49:21.373Z,0
2016-11-13T02:50:30.280Z,0
2016-11-13T02:51:38.885Z,0
2016-11-13T02:52:47.481Z,0
2016-11-13T02:53:56.052Z,0
2016-11-13T02:55:04.645Z,0
2016-11-13T02:56:13.274Z,0
2016-11-13T02:57:21.895Z,0
2016-11-13T02:58:30.511Z,0
2016-11-13T02:59:39.125Z,0
2016-11-13T03:00:47.761Z,0
2016-11-13T03:01:56.367Z,0
2016-11-13T03:03:04.988Z,0
2016-11-13T03:04:13.572Z,0
2016-11-13T03:05:22.173Z,0
2016-11-13T03:06:30.778Z,0
2016-11-13T03:07:39.380Z,0
2016-11-13T03:08:47.999Z,0
2016-11-13T03:09:56.640Z,0
2016-11-13T03:11:05.244Z,0
2016-11-13T03:12:13.869Z,0
2016-11-13T03:13:22.486Z,0
2016-11-13T03:14:31.086Z,0
2016-11-13T03:15:39.697Z,0
2016-11-13T03:16:48.300Z,0
2016-11-13T03:17:56.895Z,0
2016-11-13T03:19:05.496Z,0
2016-11-13T03:20:14.159Z,0
2016-11-13T03:21:22.759Z,0
2016-11-13T03:22:31.355Z,0
2016-11-13T03:23:39.951Z,0
2016-11-13T03:24:48.550Z,0
2016-11-13T03:25:57.198Z,0
2016-11-13T03:27:05.793Z,0
2016-11-13T03:28:14.409Z,0
2016-11-13T03:29:23.311Z,0
2016-11-13T03:30:31.945Z,0
2016-11-13T03:31:40.567Z,0
2016-11-13T03:32:49.174Z,0
2016-11-13T03:33:57.813Z,0
2016-11-13T03:35:06.718Z,0
2016-11-13T03:36:15.326Z,0
2016-11-13T03:37:23.934Z,0
2016-11-13T03:38:32.555Z,0
2016-11-13T03:39:41.168Z,0
2016-11-13T03:40:49.790Z,0
2016-11-13T03:41:58.393Z,0
2016-11-13T03:43:07.003Z,0
2016-11-13T03:44:15.606Z,0
2016-11-13T03:45:24.195Z,0
2016-11-13T03:46:32.840Z,0
2016-11-13T03:47:41.444Z,0
2016-11-13T03:48:50.062Z,0
2016-11-13T03:49:58.661Z,0
2016-11-13T03:51:07.250Z,0
2016-11-13T03:52:15.860Z,0
2016-11-13T03:53:24.479Z,0
2016-11-13T03:54:33.071Z,0
2016-11-13T03:55:41.993Z,0
2016-11-13T03:56:50.588Z,0
2016-11-13T03:57:59.184Z,0
2016-11-13T03:59:07.799Z,0
2016-11-13T04:00:16.436Z,0
2016-11-13T04:01:25.052Z,0
2016-11-13T04:02:33.974Z,0
2016-11-13T04:03:42.597Z,0
2016-11-13T04:04:51.217Z,0
2016-11-13T04:05:59.825Z,0
2016-11-13T04:07:08.428Z,0
2016-11-13T04:08:17.024Z,0
2016-11-13T04:09:25.649Z,0
2016-11-13T04:10:34.266Z,0
2016-11-13T04:11:42.879Z,0
2016-11-13T04:12:51.464Z,0
2016-11-13T04:14:00.076Z,0
2016-11-13T04:15:08.705Z,0
2016-11-13T04:16:17.328Z,0
2016-11-13T04:17:25.943Z,0
2016-11-13T04:18:34.559Z,0
2016-11-13T04:19:43.163Z,0
2016-11-13T04:20:51.786Z,0
2016-11-13T04:22:00.408Z,0
2016-11-13T04:23:09.016Z,0
2016-11-13T04:24:17.623Z,0
2016-11-13T04:25:26.246Z,0
2016-11-13T04:26:34.837Z,0
2016-11-13T04:27:43.435Z,0
2016-11-13T04:28:52.075Z,0
2016-11-13T04:30:00.685Z,0
2016-11-13T04:31:09.288Z,0
2016-11-13T04:32:17.892Z,0
2016-11-13T04:33:26.495Z,0
2016-11-13T04:34:35.090Z,0
2016-11-13T04:35:43.726Z,0
2016-11-13T04:36:52.349Z,0
2016-11-13T04:38:00.948Z,0
2016-11-13T04:39:09.561Z,0
2016-11-13T04:40:18.170Z,0
2016-11-13T04:41:26.811Z,0
2016-11-13T04:42:35.430Z,0
2016-11-13T04:43:44.029Z,0
2016-11-13T04:44:52.627Z,0
2016-11-13T04:46:01.246Z,0
2016-11-13T04:47:09.839Z,0
2016-11-13T04:48:18.444Z,0
2016-11-13T04:49:27.056Z,0
2016-11-13T04:50:35.655Z,0
2016-11-13T04:51:44.227Z,0
2016-11-13T04:52:52.802Z,0
2016-11-13T04:54:01.398Z,0
2016-11-13T04:55:10.038Z,0
2016-11-13T04:56:18.666Z,0
2016-11-13T04:57:27.308Z,0
2016-11-13T04:58:35.960Z,0
2016-11-13T04:59:44.580Z,0
2016-11-13T05:00:53.195Z,0
2016-11-13T05:02:02.091Z,0
2016-11-13T05:03:10.680Z,0
2016-11-13T05:04:19.308Z,0
2016-11-13T05:05:27.926Z,0
2016-11-13T05:06:36.543Z,0
2016-11-13T05:07:45.149Z,0
2016-11-13T05:08:53.740Z,0
2016-11-13T05:10:02.339Z,0
2016-11-13T05:11:10.936Z,0
2016-11-13T05:12:19.536Z,0
2016-11-13T05:13:28.149Z,0
2016-11-13T05:14:36.742Z,0
2016-11-13T05:15:45.321Z,0
2016-11-13T05:16:53.939Z,0
2016-11-13T05:18:02.543Z,0
2016-11-13T05:19:11.180Z,0
2016-11-13T05:20:19.789Z,0
2016-11-13T05:21:28.404Z,0
2016-11-13T05:22:37.021Z,0
2016-11-13T05:23:45.635Z,0
2016-11-13T05:24:54.244Z,0
2016-11-13T05:26:02.860Z,0
2016-11-13T05:27:11.431Z,0
2016-11-13T05:28:20.049Z,0
2016-11-13T05:29:28.666Z,0
2016-11-13T05:30:37.271Z,0
2016-11-13T05:31:45.865Z,0
2016-11-13T05:32:54.437Z,0
2016-11-13T05:34:03.033Z,0
2016-11-13T05:35:11.607Z,0
2016-11-13T05:36:20.200Z,0
2016-11-13T05:37:28.800Z,0
2016-11-13T05:38:37.422Z,0
2016-11-13T05:39:46.043Z,0
2016-11-13T05:40:54.659Z,0
2016-11-13T05:42:03.255Z,0
2016-11-13T05:43:11.906Z,0
2016-11-13T05:44:20.502Z,0
2016-11-13T05:45:29.120Z,0
2016-11-13T05:46:37.715Z,0
2016-11-13T05:47:46.359Z,0
2016-11-13T05:48:54.987Z,0
2016-11-13T05:50:03.604Z,4
2016-11-13T05:51:12.199Z,4
2016-11-13T05:52:20.788Z,0
2016-11-13T05:53:29.395Z,4
2016-11-13T05:54:37.992Z,8
2016-11-13T05:55:46.609Z,4
2016-11-13T05:56:55.209Z,8
2016-11-13T05:58:03.831Z,8
2016-11-13T05:59:12.469Z,12
2016-11-13T06:00:21.071Z,12
2016-11-13T06:01:29.669Z,16
2016-11-13T06:02:38.277Z,20
2016-11-13T06:03:46.861Z,24
2016-11-13T06:04:55.457Z,28
2016-11-13T06:06:04.055Z,32
2016-11-13T06:07:12.673Z,40
2016-11-13T06:08:21.292Z,44
2016-11-13T06:09:29.889Z,56
2016-11-13T06:10:38.513Z,64
2016-11-13T06:11:47.139Z,76
2016-11-13T06:12:55.743Z,88
2016-11-13T06:14:04.350Z,100
2016-11-13T06:15:12.967Z,116
2016-11-13T06:16:21.588Z,132
2016-11-13T06:17:30.184Z,152
2016-11-13T06:18:38.803Z,172
2016-11-13T06:19:47.403Z,196
2016-11-13T06:20:55.999Z,220
2016-11-13T06:22:04.619Z,244
2016-11-13T06:23:13.221Z,272
2016-11-13T06:24:21.853Z,304
2016-11-13T06:25:30.462Z,332
2016-11-13T06:26:39.053Z,368
2016-11-13T06:27:47.649Z,404
2016-11-13T06:28:56.251Z,444
2016-11-13T06:30:04.888Z,480
2016-11-13T06:31:13.488Z,516
2016-11-13T06:32:22.084Z,560
2016-11-13T06:33:30.700Z,596
2016-11-13T06:34:39.307Z,640
2016-11-13T06:35:47.965Z,680
2016-11-13T06:36:56.569Z,720
2016-11-13T06:38:05.164Z,764
2016-11-13T06:39:13.762Z,808
2016-11-13T06:40:22.366Z,844
2016-11-13T06:41:30.983Z,888
2016-11-13T06:42:39.591Z,932
2016-11-13T06:43:48.242Z,972
2016-11-13T06:44:56.846Z,1012
2016-11-13T06:46:05.488Z,1056
2016-11-13T06:47:14.119Z,1100
2016-11-13T06:48:22.734Z,1148
2016-11-13T06:49:31.353Z,1192
2016-11-13T06:50:39.922Z,1240
2016-11-13T06:51:48.536Z,1280
2016-11-13T06:52:57.131Z,1324
2016-11-13T06:54:05.753Z,1372
2016-11-13T06:55:14.360Z,1424
2016-11-13T06:56:22.983Z,1476
2016-11-13T06:57:31.595Z,1520
2016-11-13T06:58:40.198Z,1552
2016-11-13T06:59:48.794Z,1604
2016-11-13T07:00:57.390Z,1672
2016-11-13T07:02:06.012Z,1704
2016-11-13T07:03:14.633Z,1724
2016-11-13T07:04:23.254Z,1772
2016-11-13T07:05:31.889Z,1832
2016-11-13T07:06:40.471Z,1888
2016-11-13T07:07:49.088Z,1932
2016-11-13T07:08:57.686Z,1984
2016-11-13T07:10:06.298Z,2028
2016-11-13T07:11:14.919Z,2068
2016-11-13T07:12:23.508Z,2108
2016-11-13T07:13:32.098Z,2144
2016-11-13T07:14:40.770Z,2184
2016-11-13T07:15:49.386Z,2220
2016-11-13T07:16:58.004Z,2260
2016-11-13T07:18:06.624Z,2300
2016-11-13T07:19:15.251Z,2340
2016-11-13T07:20:23.905Z,2384
2016-11-13T07:21:32.792Z,2428
2016-11-13T07:22:41.437Z,2464
2016-11-13T07:23:50.034Z,2508
2016-11-13T07:24:58.630Z,2552
2016-11-13T07:26:07.231Z,2604
2016-11-13T07:27:15.844Z,2652
2016-11-13T07:28:24.465Z,2712
2016-11-13T07:29:33.615Z,2772
2016-11-13T07:30:42.216Z,2824
2016-11-13T07:31:50.811Z,2880
2016-11-13T07:32:59.427Z,2936
2016-11-13T07:34:08.023Z,3008
2016-11-13T07:35:16.620Z,3080
2016-11-13T07:36:25.234Z,3144
2016-11-13T07:37:33.837Z,3200
2016-11-13T07:38:42.433Z,3260
2016-11-13T07:39:51.051Z,3264
2016-11-13T07:40:59.667Z,3212
2016-11-13T07:42:08.271Z,3256
2016-11-13T07:43:16.867Z,3260
2016-11-13T07:44:25.461Z,3176
2016-11-13T07:45:34.060Z,3048
2016-11-13T07:46:42.661Z,3004
2016-11-13T07:47:51.574Z,2984
2016-11-13T07:49:00.198Z,3076
2016-11-13T07:50:08.800Z,3256
2016-11-13T07:51:17.426Z,3356
2016-11-13T07:52:26.040Z,3364
2016-11-13T07:53:34.679Z,3400
2016-11-13T07:54:43.303Z,3400
2016-11-13T07:55:51.895Z,3428
2016-11-13T07:57:00.548Z,3424
2016-11-13T07:58:09.141Z,3420
2016-11-13T07:59:17.734Z,3428
2016-11-13T08:00:26.335Z,3436
2016-11-13T08:01:34.934Z,3452
2016-11-13T08:02:43.531Z,3452
2016-11-13T08:03:52.122Z,3452
2016-11-13T08:05:00.693Z,3436
2016-11-13T08:06:09.284Z,3484
2016-11-13T08:07:17.895Z,3512
2016-11-13T08:08:26.828Z,3512
2016-11-13T08:09:35.471Z,3516
2016-11-13T08:10:44.073Z,3536
2016-11-13T08:11:52.674Z,3580
2016-11-13T08:13:01.291Z,3604
2016-11-13T08:14:09.866Z,3624
2016-11-13T08:15:18.483Z,3640
2016-11-13T08:16:27.079Z,3628
2016-11-13T08:17:35.681Z,3624
2016-11-13T08:18:44.675Z,3616
2016-11-13T08:19:53.273Z,3628
2016-11-13T08:21:01.897Z,3640
2016-11-13T08:22:10.490Z,3656
2016-11-13T08:23:19.160Z,3656
2016-11-13T08:24:27.753Z,3644
2016-11-13T08:25:36.354Z,3472
2016-11-13T08:26:44.987Z,3328
2016-11-13T08:27:53.571Z,3592
2016-11-13T08:29:02.179Z,3852
2016-11-13T08:30:10.782Z,3848
2016-11-13T08:31:19.403Z,3820
2016-11-13T08:32:28.005Z,3812
2016-11-13T08:33:36.601Z,3804
2016-11-13T08:34:45.203Z,3796
2016-11-13T08:35:53.813Z,3804
2016-11-13T08:37:02.437Z,3856
2016-11-13T08:38:11.057Z,3860
2016-11-13T08:39:19.681Z,3872
2016-11-13T08:40:28.300Z,3880
2016-11-13T08:41:36.923Z,3892
2016-11-13T08:42:45.543Z,3888
2016-11-13T08:43:54.158Z,3876
2016-11-13T08:45:02.778Z,3880
2016-11-13T08:46:11.378Z,3884
2016-11-13T08:47:19.978Z,3900
2016-11-13T08:48:28.636Z,3892
2016-11-13T08:49:37.269Z,3876
2016-11-13T08:50:45.934Z,3864
2016-11-13T08:51:54.535Z,3848
2016-11-13T08:53:03.134Z,3828
2016-11-13T08:54:11.732Z,3824
2016-11-13T08:55:20.351Z,3824
2016-11-13T08:56:28.975Z,3832
2016-11-13T08:57:37.590Z,3840
2016-11-13T08:58:46.215Z,3836
2016-11-13T08:59:54.840Z,3840
2016-11-13T09:01:03.458Z,3844
2016-11-13T09:02:12.099Z,3876
2016-11-13T09:03:20.712Z,3888
2016-11-13T09:04:29.321Z,3896
2016-11-13T09:05:37.937Z,3916
2016-11-13T09:06:46.536Z,3928
2016-11-13T09:07:55.135Z,3916
2016-11-13T09:09:03.729Z,3940
2016-11-13T09:10:12.325Z,3948
2016-11-13T09:11:20.917Z,3960
2016-11-13T09:12:29.518Z,3972
2016-11-13T09:13:38.159Z,4036
2016-11-13T09:14:46.798Z,4088
2016-11-13T09:15:55.420Z,4128
2016-11-13T09:17:04.024Z,4148
2016-11-13T09:18:12.920Z,4168
2016-11-13T09:19:21.559Z,4180
2016-11-13T09:20:30.141Z,4172
2016-11-13T09:21:38.749Z,4240
2016-11-13T09:22:47.657Z,4228
2016-11-13T09:23:56.279Z,4268
2016-11-13T09:25:04.899Z,4260
2016-11-13T09:26:13.491Z,4256
2016-11-13T09:27:22.088Z,4236
2016-11-13T09:28:30.694Z,4244
2016-11-13T09:29:39.284Z,4260
2016-11-13T09:30:47.881Z,4276
2016-11-13T09:31:56.543Z,4276
2016-11-13T09:33:05.461Z,4248
2016-11-13T09:34:14.094Z,4188
2016-11-13T09:35:22.710Z,4152
2016-11-13T09:36:31.312Z,4132
2016-11-13T09:37:39.945Z,4152
2016-11-13T09:38:48.567Z,4120
2016-11-13T09:39:57.167Z,4116
2016-11-13T09:41:05.787Z,4104
2016-11-13T09:42:14.416Z,4092
2016-11-13T09:43:23.030Z,4072
2016-11-13T09:44:31.629Z,4064
2016-11-13T09:45:40.225Z,4056
2016-11-13T09:46:48.825Z,3928
2016-11-13T09:47:57.442Z,4028
2016-11-13T09:49:06.038Z,4052
2016-11-13T09:50:14.648Z,4012
2016-11-13T09:51:23.286Z,4068
2016-11-13T09:52:31.919Z,4060
2016-11-13T09:53:40.529Z,4072
2016-11-13T09:54:49.166Z,4080
2016-11-13T09:55:57.790Z,4116
2016-11-13T09:57:06.387Z,4168
2016-11-13T09:58:15.012Z,4180
2016-11-13T09:59:23.604Z,4160
2016-11-13T10:00:32.204Z,4180
2016-11-13T10:01:40.825Z,4192
2016-11-13T10:02:49.716Z,4164
2016-11-13T10:03:58.313Z,4192
2016-11-13T10:05:06.913Z,4224
2016-11-13T10:06:15.532Z,4236
2016-11-13T10:07:24.183Z,4236
2016-11-13T10:08:32.801Z,4228
2016-11-13T10:09:41.419Z,4252
2016-11-13T10:10:50.740Z,4292
2016-11-13T10:11:59.343Z,4292
2016-11-13T10:13:07.950Z,4292
2016-11-13T10:14:16.574Z,4276
2016-11-13T10:15:25.191Z,4272
2016-11-13T10:16:33.800Z,4260
2016-11-13T10:17:42.416Z,4208
2016-11-13T10:18:51.021Z,4132
2016-11-13T10:20:00.035Z,4100
2016-11-13T10:21:08.629Z,4124
2016-11-13T10:22:17.242Z,4096
2016-11-13T10:23:25.865Z,4092
2016-11-13T10:24:34.499Z,4072
2016-11-13T10:25:43.144Z,4104
2016-11-13T10:26:51.764Z,4116
2016-11-13T10:28:00.360Z,4084
2016-11-13T10:29:08.977Z,4092
2016-11-13T10:30:17.580Z,4156
2016-11-13T10:31:26.187Z,4148
2016-11-13T10:32:34.812Z,4100
2016-11-13T10:33:43.467Z,4168
2016-11-13T10:34:52.087Z,4220
2016-11-13T10:36:00.729Z,4168
2016-11-13T10:37:09.325Z,4124
2016-11-13T10:38:17.933Z,4072
2016-11-13T10:39:26.548Z,4048
2016-11-13T10:40:35.194Z,4108
2016-11-13T10:41:43.840Z,4132
2016-11-13T10:42:52.459Z,4028
2016-11-13T10:44:01.073Z,4064
2016-11-13T10:45:09.672Z,4028
2016-11-13T10:46:18.268Z,4048
2016-11-13T10:47:26.865Z,4072
2016-11-13T10:48:35.465Z,4092
2016-11-13T10:49:44.083Z,4088
2016-11-13T10:50:52.682Z,4056
2016-11-13T10:52:01.317Z,4060
2016-11-13T10:53:09.925Z,4084
2016-11-13T10:54:18.561Z,4040
2016-11-13T10:55:27.163Z,4036
2016-11-13T10:56:35.780Z,4028
2016-11-13T10:57:44.385Z,4044
2016-11-13T10:58:52.981Z,4072
2016-11-13T11:00:01.601Z,4080
2016-11-13T11:01:10.248Z,4072
2016-11-13T11:02:18.870Z,4020
2016-11-13T11:03:27.490Z,4008
2016-11-13T11:04:36.099Z,4056
2016-11-13T11:05:44.724Z,4084
2016-11-13T11:06:53.341Z,4120
2016-11-13T11:08:02.292Z,4024
2016-11-13T11:09:10.913Z,3964
2016-11-13T11:10:19.537Z,4048
2016-11-13T11:11:28.146Z,4064
2016-11-13T11:12:37.080Z,4032
2016-11-13T11:13:45.686Z,4020
2016-11-13T11:14:54.318Z,3992
2016-11-13T11:16:02.947Z,4000
2016-11-13T11:17:11.581Z,3984
2016-11-13T11:18:20.214Z,4032
2016-11-13T11:19:28.839Z,4040
2016-11-13T11:20:37.453Z,4016
2016-11-13T11:21:46.053Z,4008
2016-11-13T11:22:54.723Z,4028
2016-11-13T11:24:03.320Z,3972
2016-11-13T11:25:11.958Z,3940
2016-11-13T11:26:20.558Z,3952
2016-11-13T11:27:29.171Z,3900
2016-11-13T11:28:37.782Z,3928
2016-11-13T11:29:46.403Z,3932
2016-11-13T11:30:55.014Z,3948
2016-11-13T11:32:03.642Z,3960
2016-11-13T11:33:12.240Z,3960
2016-11-13T11:34:20.855Z,3928
2016-11-13T11:35:29.470Z,3880
2016-11-13T11:36:38.077Z,3900
2016-11-13T11:37:46.701Z,3952
2016-11-13T11:38:55.291Z,3976
2016-11-13T11:40:03.908Z,3996
2016-11-13T11:41:12.528Z,3980
2016-11-13T11:42:21.127Z,3936
2016-11-13T11:43:29.754Z,3992
2016-11-13T11:44:38.370Z,4024
2016-11-13T11:45:46.966Z,4068
2016-11-13T11:46:55.609Z,4064
2016-11-13T11:48:04.208Z,4072
2016-11-13T11:49:12.808Z,4064
2016-11-13T11:50:21.431Z,4072
2016-11-13T11:51:30.022Z,4052
2016-11-13T11:52:38.647Z,3996
2016-11-13T11:53:47.256Z,3968
2016-11-13T11:54:55.878Z,3992
2016-11-13T11:56:04.511Z,3964
2016-11-13T11:57:13.137Z,3960
2016-11-13T11:58:21.752Z,4008
2016-11-13T11:59:30.350Z,4028
2016-11-13T12:00:38.969Z,4100
2016-11-13T12:01:47.561Z,4172
2016-11-13T12:02:56.182Z,4176
2016-11-13T12:04:04.778Z,4208
2016-11-13T12:05:13.399Z,4268
2016-11-13T12:06:22.013Z,4296
2016-11-13T12:07:30.634Z,4280
2016-11-13T12:08:39.237Z,4324
2016-11-13T12:09:47.850Z,4396
2016-11-13T12:10:56.479Z,4416
2016-11-13T12:12:05.105Z,4388
2016-11-13T12:13:13.725Z,4428
2016-11-13T12:14:22.347Z,4404
2016-11-13T12:15:30.968Z,4344
2016-11-13T12:16:39.590Z,4300
2016-11-13T12:17:48.210Z,4324
2016-11-13T12:18:56.832Z,4316
2016-11-13T12:20:05.757Z,4216
2016-11-13T12:21:14.378Z,4148
2016-11-13T12:22:23.308Z,4076
2016-11-13T12:23:31.933Z,3968
2016-11-13T12:24:40.532Z,3904
2016-11-13T12:25:49.132Z,3804
2016-11-13T12:26:57.749Z,3704
2016-11-13T12:28:06.349Z,3720
2016-11-13T12:29:14.942Z,3728
2016-11-13T12:30:23.541Z,3760
2016-11-13T12:31:32.155Z,3736
2016-11-13T12:32:40.758Z,3664
2016-11-13T12:33:49.405Z,3680
2016-11-13T12:34:57.996Z,3720
2016-11-13T12:36:06.602Z,3772
2016-11-13T12:37:15.196Z,3748
2016-11-13T12:38:23.807Z,3696
2016-11-13T12:39:32.432Z,3700
2016-11-13T12:40:41.033Z,3708
2016-11-13T12:41:49.648Z,3676
2016-11-13T12:42:58.250Z,3652
2016-11-13T12:44:06.861Z,3596
2016-11-13T12:45:15.466Z,3600
2016-11-13T12:46:24.104Z,3632
2016-11-13T12:47:32.734Z,3648
2016-11-13T12:48:41.353Z,3620
2016-11-13T12:49:49.946Z,3604
2016-11-13T12:50:58.541Z,3592
2016-11-13T12:52:07.154Z,3560
2016-11-13T12:53:15.777Z,3516
2016-11-13T12:54:24.410Z,3444
2016-11-13T12:55:33.048Z,3452
2016-11-13T12:56:41.664Z,3448
2016-11-13T12:57:50.323Z,3380
2016-11-13T12:58:58.956Z,3360
2016-11-13T13:00:07.865Z,3380
2016-11-13T13:01:16.478Z,3284
2016-11-13T13:02:25.082Z,3176
2016-11-13T13:03:33.746Z,3160
2016-11-13T13:04:42.345Z,3264
2016-11-13T13:05:50.959Z,3364
2016-11-13T13:06:59.564Z,3396
2016-11-13T13:08:08.160Z,3436
2016-11-13T13:09:16.777Z,3440
2016-11-13T13:10:25.380Z,3420
2016-11-13T13:11:34.019Z,3396
2016-11-13T13:12:42.641Z,3404
2016-11-13T13:13:51.262Z,3416
2016-11-13T13:14:59.862Z,3420
2016-11-13T13:16:08.482Z,3424
2016-11-13T13:17:17.124Z,3412
2016-11-13T13:18:25.829Z,3404
2016-11-13T13:19:34.467Z,3388
2016-11-13T13:20:43.100Z,3356
2016-11-13T13:21:51.710Z,3328
2016-11-13T13:23:00.309Z,3316
2016-11-13T13:24:08.906Z,3312
2016-11-13T13:25:17.506Z,3292
2016-11-13T13:26:26.123Z,3272
2016-11-13T13:27:34.753Z,3256
2016-11-13T13:28:43.391Z,3228
2016-11-13T13:29:52.003Z,3192
2016-11-13T13:31:00.639Z,3192
2016-11-13T13:32:09.253Z,3148
2016-11-13T13:33:18.174Z,3196
2016-11-13T13:34:26.799Z,3160
2016-11-13T13:35:35.396Z,3088
2016-11-13T13:36:44.040Z,3076
2016-11-13T13:37:52.638Z,3072
2016-11-13T13:39:01.273Z,3092
2016-11-13T13:40:10.193Z,3100
2016-11-13T13:41:18.815Z,3100
2016-11-13T13:42:27.436Z,3084
2016-11-13T13:43:36.061Z,3080
2016-11-13T13:44:44.686Z,3072
2016-11-13T13:45:53.307Z,3084
2016-11-13T13:47:01.903Z,3076
2016-11-13T13:48:10.500Z,3056
2016-11-13T13:49:19.125Z,3032
2016-11-13T13:50:27.741Z,3016
2016-11-13T13:51:36.337Z,2996
2016-11-13T13:52:44.934Z,2956
2016-11-13T13:53:53.530Z,2920
2016-11-13T13:55:02.126Z,2896
2016-11-13T13:56:10.744Z,2852
2016-11-13T13:57:19.343Z,2748
2016-11-13T13:58:27.996Z,2688
2016-11-13T13:59:36.591Z,2612
2016-11-13T14:00:45.225Z,2580
2016-11-13T14:01:53.853Z,2608
2016-11-13T14:03:02.467Z,2532
2016-11-13T14:04:11.095Z,2592
2016-11-13T14:05:19.695Z,2612
2016-11-13T14:06:28.313Z,2592
2016-11-13T14:07:36.962Z,2576
2016-11-13T14:08:45.555Z,2564
2016-11-13T14:09:54.173Z,2540
2016-11-13T14:11:02.772Z,2520
2016-11-13T14:12:11.399Z,2496
2016-11-13T14:13:20.020Z,2436
2016-11-13T14:14:28.657Z,2332
2016-11-13T14:15:37.258Z,2208
2016-11-13T14:16:45.879Z,2136
2016-11-13T14:17:54.478Z,2092
2016-11-13T14:19:03.096Z,2044
2016-11-13T14:20:11.692Z,2032
2016-11-13T14:21:20.292Z,2032
2016-11-13T14:22:28.890Z,2016
2016-11-13T14:23:37.509Z,1956
2016-11-13T14:24:46.127Z,1908
2016-11-13T14:25:54.722Z,1852
2016-11-13T14:27:03.366Z,1808
2016-11-13T14:28:11.971Z,1740
2016-11-13T14:29:20.607Z,1708
2016-11-13T14:30:29.209Z,1672
2016-11-13T14:31:37.803Z,1624
2016-11-13T14:32:46.417Z,1560
2016-11-13T14:33:55.049Z,1516
2016-11-13T14:35:03.698Z,1484
2016-11-13T14:36:12.336Z,1456
2016-11-13T14:37:20.963Z,1424
2016-11-13T14:38:29.580Z,1376
2016-11-13T14:39:38.176Z,1328
2016-11-13T14:40:46.790Z,1284
2016-11-13T14:41:55.415Z,1240
2016-11-13T14:43:04.015Z,1200
2016-11-13T14:44:12.610Z,1164
2016-11-13T14:45:21.232Z,1132
2016-11-13T14:46:29.859Z,1096
2016-11-13T14:47:38.455Z,1056
2016-11-13T14:48:47.075Z,1020
2016-11-13T14:49:55.991Z,992
2016-11-13T14:51:04.589Z,956
2016-11-13T14:52:13.256Z,924
2016-11-13T14:53:21.872Z,884
2016-11-13T14:54:30.498Z,848
2016-11-13T14:55:39.119Z,816
2016-11-13T14:56:47.736Z,780
2016-11-13T14:57:56.343Z,752
2016-11-13T14:59:04.964Z,720
2016-11-13T15:00:13.556Z,688
2016-11-13T15:01:22.225Z,668
2016-11-13T15:02:30.845Z,640
2016-11-13T15:03:39.463Z,612
2016-11-13T15:04:48.066Z,584
2016-11-13T15:05:56.672Z,552
2016-11-13T15:07:05.303Z,524
2016-11-13T15:08:13.904Z,492
2016-11-13T15:09:22.518Z,456
2016-11-13T15:10:31.146Z,424
2016-11-13T15:11:39.771Z,396
2016-11-13T15:12:48.389Z,364
2016-11-13T15:13:56.989Z,336
2016-11-13T15:15:05.611Z,308
2016-11-13T15:16:14.253Z,284
2016-11-13T15:17:22.853Z,256
2016-11-13T15:18:31.748Z,232
2016-11-13T15:19:40.347Z,212
2016-11-13T15:20:48.936Z,188
2016-11-13T15:21:57.534Z,172
2016-11-13T15:23:06.150Z,148
2016-11-13T15:24:14.755Z,132
2016-11-13T15:25:23.371Z,120
2016-11-13T15:26:31.990Z,104
2016-11-13T15:27:40.605Z,92
2016-11-13T15:28:49.220Z,76
2016-11-13T15:29:57.852Z,68
2016-11-13T15:31:06.476Z,56
2016-11-13T15:32:15.078Z,48
2016-11-13T15:33:23.694Z,40
2016-11-13T15:34:32.294Z,32
2016-11-13T15:35:40.916Z,32
2016-11-13T15:36:49.550Z,24
2016-11-13T15:37:58.162Z,20
2016-11-13T15:39:06.781Z,16
2016-11-13T15:40:15.412Z,16
2016-11-13T15:41:24.017Z,12
2016-11-13T15:42:32.642Z,12
2016-11-13T15:43:41.280Z,8
2016-11-13T15:44:49.933Z,8
2016-11-13T15:45:58.561Z,4
2016-11-13T15:47:07.176Z,4
2016-11-13T15:48:15.797Z,4
2016-11-13T15:49:24.416Z,0
2016-11-13T15:50:33.019Z,0
2016-11-13T15:51:41.610Z,4
2016-11-13T15:52:50.248Z,4
2016-11-13T15:53:58.852Z,0